sensor_id;sensor_type;location;lat;lon;timestamp;P1;durP1;ratioP1;P2;durP2;ratioP2
13720;SDS011;6932;51.438;5.470;2023-03-07T00:02:10;3.47;;;2.50;;
13720;SDS011;6932;51.438;5.470;2023-03-07T00:04:36;3.93;;;2.37;;
13720;SDS011;6932;51.438;5.470;2023-03-07T00:07:01;2.50;;;2.00;;
13720;SDS011;6932;51.438;5.470;2023-03-07T00:09:27;2.17;;;1.87;;
13720;SDS011;6932;51.438;5.470;2023-03-07T00:11:53;2.40;;;1.80;;
13720;SDS011;6932;51.438;5.470;2023-03-07T00:14:19;2.60;;;1.70;;
13720;SDS011;6932;51.438;5.470;2023-03-07T00:16:45;1.53;;;1.43;;
13720;SDS011;6932;51.438;5.470;2023-03-07T00:19:14;1.70;;;1.40;;
13720;SDS011;6932;51.438;5.470;2023-03-07T00:21:42;1.73;;;1.47;;
13720;SDS011;6932;51.438;5.470;2023-03-07T00:24:08;1.53;;;1.30;;
13720;SDS011;6932;51.438;5.470;2023-03-07T00:26:34;1.20;;;1.10;;
13720;SDS011;6932;51.438;5.470;2023-03-07T00:29:03;1.30;;;1.20;;
13720;SDS011;6932;51.438;5.470;2023-03-07T00:31:32;2.27;;;1.20;;
13720;SDS011;6932;51.438;5.470;2023-03-07T00:33:58;1.10;;;1.00;;
13720;SDS011;6932;51.438;5.470;2023-03-07T00:36:24;1.27;;;1.10;;
13720;SDS011;6932;51.438;5.470;2023-03-07T00:38:51;0.83;;;0.83;;
13720;SDS011;6932;51.438;5.470;2023-03-07T00:41:21;1.93;;;0.90;;
13720;SDS011;6932;51.438;5.470;2023-03-07T00:43:50;1.00;;;0.90;;
13720;SDS011;6932;51.438;5.470;2023-03-07T00:46:17;0.97;;;0.80;;
13720;SDS011;6932;51.438;5.470;2023-03-07T00:48:46;0.70;;;0.70;;
13720;SDS011;6932;51.438;5.470;2023-03-07T00:51:13;0.70;;;0.70;;
13720;SDS011;6932;51.438;5.470;2023-03-07T00:53:42;0.90;;;0.80;;
13720;SDS011;6932;51.438;5.470;2023-03-07T00:56:13;1.47;;;1.10;;
13720;SDS011;6932;51.438;5.470;2023-03-07T00:58:42;1.40;;;1.20;;
13720;SDS011;6932;51.438;5.470;2023-03-07T01:01:10;1.20;;;1.10;;
13720;SDS011;6932;51.438;5.470;2023-03-07T01:03:39;1.20;;;1.10;;
13720;SDS011;6932;51.438;5.470;2023-03-07T01:06:07;1.50;;;1.30;;
13720;SDS011;6932;51.438;5.470;2023-03-07T01:08:37;1.20;;;1.10;;
13720;SDS011;6932;51.438;5.470;2023-03-07T01:11:04;1.50;;;1.40;;
13720;SDS011;6932;51.438;5.470;2023-03-07T01:13:31;1.40;;;1.30;;
13720;SDS011;6932;51.438;5.470;2023-03-07T01:16:10;1.53;;;1.20;;
13720;SDS011;6932;51.438;5.470;2023-03-07T01:18:43;1.50;;;1.30;;
13720;SDS011;6932;51.438;5.470;2023-03-07T01:21:34;1.50;;;1.30;;
13720;SDS011;6932;51.438;5.470;2023-03-07T01:24:02;1.83;;;1.40;;
13720;SDS011;6932;51.438;5.470;2023-03-07T01:26:30;2.27;;;1.30;;
13720;SDS011;6932;51.438;5.470;2023-03-07T01:28:58;1.50;;;1.20;;
13720;SDS011;6932;51.438;5.470;2023-03-07T01:31:26;2.37;;;1.40;;
13720;SDS011;6932;51.438;5.470;2023-03-07T01:33:56;1.80;;;1.30;;
13720;SDS011;6932;51.438;5.470;2023-03-07T01:36:26;2.20;;;1.60;;
13720;SDS011;6932;51.438;5.470;2023-03-07T01:38:57;1.50;;;1.40;;
13720;SDS011;6932;51.438;5.470;2023-03-07T01:41:38;2.03;;;1.70;;
13720;SDS011;6932;51.438;5.470;2023-03-07T01:44:12;2.00;;;1.60;;
13720;SDS011;6932;51.438;5.470;2023-03-07T01:55:41;2.73;;;1.80;;
13720;SDS011;6932;51.438;5.470;2023-03-07T01:58:11;2.20;;;1.70;;
13720;SDS011;6932;51.438;5.470;2023-03-07T02:00:39;1.93;;;1.67;;
13720;SDS011;6932;51.438;5.470;2023-03-07T02:03:10;2.47;;;2.00;;
13720;SDS011;6932;51.438;5.470;2023-03-07T02:06:06;2.10;;;1.80;;
13720;SDS011;6932;51.438;5.470;2023-03-07T02:08:35;2.13;;;1.77;;
13720;SDS011;6932;51.438;5.470;2023-03-07T02:11:04;2.83;;;2.17;;
13720;SDS011;6932;51.438;5.470;2023-03-07T02:13:31;2.20;;;1.90;;
13720;SDS011;6932;51.438;5.470;2023-03-07T02:15:58;2.30;;;1.97;;
13720;SDS011;6932;51.438;5.470;2023-03-07T02:18:27;2.50;;;1.90;;
13720;SDS011;6932;51.438;5.470;2023-03-07T02:26:56;2.53;;;1.80;;
13720;SDS011;6932;51.438;5.470;2023-03-07T02:29:22;2.37;;;1.90;;
13720;SDS011;6932;51.438;5.470;2023-03-07T02:31:48;2.87;;;1.67;;
13720;SDS011;6932;51.438;5.470;2023-03-07T02:34:21;2.60;;;1.70;;
13720;SDS011;6932;51.438;5.470;2023-03-07T02:36:52;1.90;;;1.70;;
13720;SDS011;6932;51.438;5.470;2023-03-07T02:39:25;2.00;;;1.80;;
13720;SDS011;6932;51.438;5.470;2023-03-07T02:41:55;3.20;;;1.80;;
13720;SDS011;6932;51.438;5.470;2023-03-07T02:44:25;2.50;;;1.90;;
13720;SDS011;6932;51.438;5.470;2023-03-07T02:46:51;2.27;;;1.80;;
13720;SDS011;6932;51.438;5.470;2023-03-07T02:49:16;2.83;;;1.90;;
13720;SDS011;6932;51.438;5.470;2023-03-07T02:55:23;2.07;;;1.80;;
13720;SDS011;6932;51.438;5.470;2023-03-07T02:57:49;2.53;;;1.80;;
13720;SDS011;6932;51.438;5.470;2023-03-07T03:00:15;2.30;;;1.70;;
13720;SDS011;6932;51.438;5.470;2023-03-07T03:02:41;2.10;;;1.70;;
13720;SDS011;6932;51.438;5.470;2023-03-07T03:05:07;2.00;;;1.77;;
13720;SDS011;6932;51.438;5.470;2023-03-07T03:07:33;2.03;;;1.77;;
13720;SDS011;6932;51.438;5.470;2023-03-07T03:09:59;2.23;;;1.70;;
13720;SDS011;6932;51.438;5.470;2023-03-07T03:12:31;2.40;;;1.77;;
13720;SDS011;6932;51.438;5.470;2023-03-07T03:14:56;2.33;;;1.80;;
13720;SDS011;6932;51.438;5.470;2023-03-07T03:17:22;2.50;;;1.90;;
13720;SDS011;6932;51.438;5.470;2023-03-07T03:19:48;2.40;;;1.90;;
13720;SDS011;6932;51.438;5.470;2023-03-07T03:22:14;2.23;;;1.80;;
13720;SDS011;6932;51.438;5.470;2023-03-07T03:24:40;2.80;;;2.13;;
13720;SDS011;6932;51.438;5.470;2023-03-07T03:27:07;3.03;;;2.30;;
13720;SDS011;6932;51.438;5.470;2023-03-07T03:29:34;3.67;;;2.47;;
13720;SDS011;6932;51.438;5.470;2023-03-07T03:32:00;2.53;;;2.10;;
13720;SDS011;6932;51.438;5.470;2023-03-07T03:34:26;3.77;;;2.50;;
13720;SDS011;6932;51.438;5.470;2023-03-07T03:36:52;3.00;;;2.23;;
13720;SDS011;6932;51.438;5.470;2023-03-07T03:39:18;3.30;;;2.40;;
13720;SDS011;6932;51.438;5.470;2023-03-07T03:41:44;3.60;;;2.20;;
13720;SDS011;6932;51.438;5.470;2023-03-07T03:44:10;3.57;;;2.57;;
13720;SDS011;6932;51.438;5.470;2023-03-07T03:46:36;3.70;;;2.50;;
13720;SDS011;6932;51.438;5.470;2023-03-07T03:49:02;4.40;;;2.70;;
13720;SDS011;6932;51.438;5.470;2023-03-07T04:02:32;3.43;;;2.30;;
13720;SDS011;6932;51.438;5.470;2023-03-07T04:04:57;2.60;;;2.10;;
13720;SDS011;6932;51.438;5.470;2023-03-07T04:07:23;4.00;;;2.57;;
13720;SDS011;6932;51.438;5.470;2023-03-07T04:09:53;3.47;;;2.67;;
13720;SDS011;6932;51.438;5.470;2023-03-07T04:15:59;3.10;;;2.10;;
13720;SDS011;6932;51.438;5.470;2023-03-07T04:18:25;5.03;;;2.47;;
13720;SDS011;6932;51.438;5.470;2023-03-07T04:20:51;3.60;;;2.30;;
13720;SDS011;6932;51.438;5.470;2023-03-07T04:26:58;3.50;;;2.30;;
13720;SDS011;6932;51.438;5.470;2023-03-07T04:29:24;3.40;;;2.23;;
13720;SDS011;6932;51.438;5.470;2023-03-07T04:31:50;3.90;;;2.60;;
13720;SDS011;6932;51.438;5.470;2023-03-07T04:34:16;3.07;;;2.30;;
13720;SDS011;6932;51.438;5.470;2023-03-07T04:36:42;3.40;;;2.40;;
13720;SDS011;6932;51.438;5.470;2023-03-07T04:39:08;4.03;;;2.70;;
13720;SDS011;6932;51.438;5.470;2023-03-07T04:41:33;5.10;;;2.80;;
13720;SDS011;6932;51.438;5.470;2023-03-07T04:47:40;3.97;;;2.60;;
13720;SDS011;6932;51.438;5.470;2023-03-07T04:50:06;3.37;;;2.50;;
13720;SDS011;6932;51.438;5.470;2023-03-07T04:52:32;4.10;;;2.80;;
13720;SDS011;6932;51.438;5.470;2023-03-07T04:58:30;3.87;;;2.60;;
13720;SDS011;6932;51.438;5.470;2023-03-07T05:00:58;5.20;;;2.70;;
13720;SDS011;6932;51.438;5.470;2023-03-07T05:03:26;3.97;;;2.40;;
13720;SDS011;6932;51.438;5.470;2023-03-07T05:05:53;3.43;;;2.63;;
13720;SDS011;6932;51.438;5.470;2023-03-07T05:08:19;3.30;;;2.50;;
13720;SDS011;6932;51.438;5.470;2023-03-07T05:10:46;4.53;;;2.50;;
13720;SDS011;6932;51.438;5.470;2023-03-07T05:13:12;3.57;;;2.67;;
13720;SDS011;6932;51.438;5.470;2023-03-07T05:15:37;5.43;;;2.63;;
13720;SDS011;6932;51.438;5.470;2023-03-07T05:18:03;3.73;;;2.60;;
13720;SDS011;6932;51.438;5.470;2023-03-07T05:20:29;3.70;;;2.50;;
13720;SDS011;6932;51.438;5.470;2023-03-07T05:22:55;3.13;;;2.50;;
13720;SDS011;6932;51.438;5.470;2023-03-07T05:25:21;3.33;;;2.43;;
13720;SDS011;6932;51.438;5.470;2023-03-07T05:27:47;3.60;;;2.50;;
13720;SDS011;6932;51.438;5.470;2023-03-07T05:30:13;3.80;;;2.63;;
13720;SDS011;6932;51.438;5.470;2023-03-07T05:32:40;4.33;;;2.80;;
13720;SDS011;6932;51.438;5.470;2023-03-07T05:35:06;4.30;;;2.67;;
13720;SDS011;6932;51.438;5.470;2023-03-07T05:37:35;4.70;;;3.00;;
13720;SDS011;6932;51.438;5.470;2023-03-07T05:40:01;3.80;;;2.80;;
13720;SDS011;6932;51.438;5.470;2023-03-07T05:42:33;4.47;;;2.77;;
13720;SDS011;6932;51.438;5.470;2023-03-07T05:44:58;4.63;;;3.10;;
13720;SDS011;6932;51.438;5.470;2023-03-07T05:47:24;5.40;;;3.03;;
13720;SDS011;6932;51.438;5.470;2023-03-07T05:49:50;4.13;;;3.10;;
13720;SDS011;6932;51.438;5.470;2023-03-07T05:52:16;5.60;;;3.60;;
13720;SDS011;6932;51.438;5.470;2023-03-07T05:54:41;5.27;;;3.33;;
13720;SDS011;6932;51.438;5.470;2023-03-07T05:57:07;4.60;;;3.30;;
13720;SDS011;6932;51.438;5.470;2023-03-07T05:59:33;5.20;;;3.30;;
13720;SDS011;6932;51.438;5.470;2023-03-07T06:01:58;4.30;;;3.10;;
13720;SDS011;6932;51.438;5.470;2023-03-07T06:04:24;5.37;;;3.57;;
13720;SDS011;6932;51.438;5.470;2023-03-07T06:06:50;5.63;;;3.63;;
13720;SDS011;6932;51.438;5.470;2023-03-07T06:09:16;4.80;;;3.23;;
13720;SDS011;6932;51.438;5.470;2023-03-07T06:11:42;4.27;;;3.17;;
13720;SDS011;6932;51.438;5.470;2023-03-07T06:14:07;5.03;;;3.37;;
13720;SDS011;6932;51.438;5.470;2023-03-07T06:16:33;4.10;;;3.20;;
13720;SDS011;6932;51.438;5.470;2023-03-07T06:18:59;3.83;;;3.03;;
13720;SDS011;6932;51.438;5.470;2023-03-07T06:24:18;3.93;;;2.90;;
13720;SDS011;6932;51.438;5.470;2023-03-07T06:26:44;3.93;;;2.97;;
13720;SDS011;6932;51.438;5.470;2023-03-07T06:29:10;4.23;;;3.03;;
13720;SDS011;6932;51.438;5.470;2023-03-07T06:31:35;3.30;;;2.43;;
13720;SDS011;6932;51.438;5.470;2023-03-07T06:34:01;4.00;;;2.80;;
13720;SDS011;6932;51.438;5.470;2023-03-07T06:36:27;3.77;;;2.30;;
13720;SDS011;6932;51.438;5.470;2023-03-07T06:38:53;3.17;;;2.30;;
13720;SDS011;6932;51.438;5.470;2023-03-07T06:41:19;3.47;;;2.40;;
13720;SDS011;6932;51.438;5.470;2023-03-07T06:43:44;3.63;;;2.43;;
13720;SDS011;6932;51.438;5.470;2023-03-07T06:46:10;2.80;;;2.10;;
13720;SDS011;6932;51.438;5.470;2023-03-07T06:48:36;3.13;;;2.37;;
13720;SDS011;6932;51.438;5.470;2023-03-07T06:51:06;2.90;;;2.20;;
13720;SDS011;6932;51.438;5.470;2023-03-07T06:53:33;2.83;;;2.07;;
13720;SDS011;6932;51.438;5.470;2023-03-07T06:55:59;3.17;;;2.07;;
13720;SDS011;6932;51.438;5.470;2023-03-07T06:58:25;2.63;;;2.10;;
13720;SDS011;6932;51.438;5.470;2023-03-07T07:00:51;2.80;;;2.10;;
13720;SDS011;6932;51.438;5.470;2023-03-07T07:03:17;2.30;;;2.00;;
13720;SDS011;6932;51.438;5.470;2023-03-07T07:05:44;2.23;;;1.80;;
13720;SDS011;6932;51.438;5.470;2023-03-07T07:08:11;2.30;;;1.80;;
13720;SDS011;6932;51.438;5.470;2023-03-07T07:10:37;2.40;;;1.83;;
13720;SDS011;6932;51.438;5.470;2023-03-07T07:13:02;2.50;;;1.80;;
13720;SDS011;6932;51.438;5.470;2023-03-07T07:15:29;2.77;;;2.00;;
13720;SDS011;6932;51.438;5.470;2023-03-07T07:17:56;2.23;;;1.83;;
13720;SDS011;6932;51.438;5.470;2023-03-07T07:20:21;2.43;;;1.93;;
13720;SDS011;6932;51.438;5.470;2023-03-07T07:22:48;2.60;;;1.90;;
13720;SDS011;6932;51.438;5.470;2023-03-07T07:25:14;2.83;;;2.20;;
13720;SDS011;6932;51.438;5.470;2023-03-07T07:27:39;2.77;;;1.93;;
13720;SDS011;6932;51.438;5.470;2023-03-07T07:30:06;2.60;;;1.93;;
13720;SDS011;6932;51.438;5.470;2023-03-07T07:32:45;3.53;;;1.80;;
13720;SDS011;6932;51.438;5.470;2023-03-07T07:35:19;2.67;;;1.77;;
13720;SDS011;6932;51.438;5.470;2023-03-07T07:37:45;3.73;;;2.17;;
13720;SDS011;6932;51.438;5.470;2023-03-07T07:40:11;3.37;;;2.03;;
13720;SDS011;6932;51.438;5.470;2023-03-07T07:42:38;2.47;;;1.60;;
13720;SDS011;6932;51.438;5.470;2023-03-07T07:45:05;2.73;;;1.80;;
13720;SDS011;6932;51.438;5.470;2023-03-07T07:47:31;2.10;;;1.70;;
13720;SDS011;6932;51.438;5.470;2023-03-07T07:53:38;3.33;;;1.90;;
13720;SDS011;6932;51.438;5.470;2023-03-07T07:56:04;3.00;;;2.00;;
13720;SDS011;6932;51.438;5.470;2023-03-07T07:58:30;1.77;;;1.60;;
13720;SDS011;6932;51.438;5.470;2023-03-07T08:00:56;2.50;;;1.70;;
13720;SDS011;6932;51.438;5.470;2023-03-07T08:03:22;3.37;;;1.90;;
13720;SDS011;6932;51.438;5.470;2023-03-07T08:05:48;1.97;;;1.77;;
13720;SDS011;6932;51.438;5.470;2023-03-07T08:08:15;2.60;;;1.93;;
13720;SDS011;6932;51.438;5.470;2023-03-07T08:10:42;2.50;;;2.00;;
13720;SDS011;6932;51.438;5.470;2023-03-07T08:13:11;2.10;;;1.70;;
13720;SDS011;6932;51.438;5.470;2023-03-07T08:15:38;2.80;;;1.90;;
13720;SDS011;6932;51.438;5.470;2023-03-07T08:18:05;2.97;;;2.03;;
13720;SDS011;6932;51.438;5.470;2023-03-07T08:20:31;4.30;;;2.20;;
13720;SDS011;6932;51.438;5.470;2023-03-07T08:22:57;3.00;;;2.00;;
13720;SDS011;6932;51.438;5.470;2023-03-07T08:25:23;2.90;;;2.20;;
13720;SDS011;6932;51.438;5.470;2023-03-07T08:27:50;3.07;;;2.30;;
13720;SDS011;6932;51.438;5.470;2023-03-07T08:30:22;3.57;;;2.40;;
13720;SDS011;6932;51.438;5.470;2023-03-07T08:32:51;3.67;;;2.40;;
13720;SDS011;6932;51.438;5.470;2023-03-07T08:35:19;4.20;;;2.77;;
13720;SDS011;6932;51.438;5.470;2023-03-07T08:37:46;3.23;;;2.37;;
13720;SDS011;6932;51.438;5.470;2023-03-07T08:40:15;3.63;;;2.40;;
13720;SDS011;6932;51.438;5.470;2023-03-07T08:42:42;4.30;;;2.57;;
13720;SDS011;6932;51.438;5.470;2023-03-07T08:52:29;3.80;;;2.60;;
13720;SDS011;6932;51.438;5.470;2023-03-07T08:54:55;3.53;;;2.50;;
13720;SDS011;6932;51.438;5.470;2023-03-07T08:57:21;5.37;;;2.90;;
13720;SDS011;6932;51.438;5.470;2023-03-07T09:06:39;4.47;;;3.07;;
13720;SDS011;6932;51.438;5.470;2023-03-07T09:09:05;5.50;;;2.93;;
13720;SDS011;6932;51.438;5.470;2023-03-07T09:15:11;3.30;;;2.50;;
13720;SDS011;6932;51.438;5.470;2023-03-07T09:17:37;3.60;;;2.50;;
13720;SDS011;6932;51.438;5.470;2023-03-07T09:20:10;4.07;;;2.60;;
13720;SDS011;6932;51.438;5.470;2023-03-07T09:22:37;3.80;;;2.57;;
13720;SDS011;6932;51.438;5.470;2023-03-07T09:25:03;4.40;;;2.67;;
13720;SDS011;6932;51.438;5.470;2023-03-07T09:27:30;3.30;;;2.37;;
13720;SDS011;6932;51.438;5.470;2023-03-07T09:29:56;3.17;;;2.37;;
13720;SDS011;6932;51.438;5.470;2023-03-07T09:32:21;4.43;;;2.90;;
13720;SDS011;6932;51.438;5.470;2023-03-07T09:34:47;4.70;;;3.20;;
13720;SDS011;6932;51.438;5.470;2023-03-07T09:37:13;4.10;;;2.80;;
13720;SDS011;6932;51.438;5.470;2023-03-07T09:39:39;3.47;;;2.50;;
13720;SDS011;6932;51.438;5.470;2023-03-07T09:56:56;6.43;;;3.10;;
13720;SDS011;6932;51.438;5.470;2023-03-07T10:05:03;5.20;;;2.73;;
13720;SDS011;6932;51.438;5.470;2023-03-07T10:07:55;5.30;;;3.10;;
13720;SDS011;6932;51.438;5.470;2023-03-07T10:10:23;4.93;;;2.83;;
13720;SDS011;6932;51.438;5.470;2023-03-07T10:15:55;4.10;;;2.77;;
13720;SDS011;6932;51.438;5.470;2023-03-07T10:18:33;5.30;;;3.10;;
13720;SDS011;6932;51.438;5.470;2023-03-07T10:21:58;4.87;;;2.90;;
13720;SDS011;6932;51.438;5.470;2023-03-07T10:27:29;6.00;;;3.10;;
13720;SDS011;6932;51.438;5.470;2023-03-07T10:29:56;6.13;;;3.00;;
13720;SDS011;6932;51.438;5.470;2023-03-07T10:35:23;4.03;;;2.40;;
13720;SDS011;6932;51.438;5.470;2023-03-07T10:38:17;4.27;;;2.67;;
13720;SDS011;6932;51.438;5.470;2023-03-07T10:41:23;4.50;;;2.60;;
13720;SDS011;6932;51.438;5.470;2023-03-07T10:43:57;3.72;;;2.55;;
13720;SDS011;6932;51.438;5.470;2023-03-07T10:46:25;5.03;;;2.83;;
13720;SDS011;6932;51.438;5.470;2023-03-07T10:48:55;4.23;;;2.60;;
13720;SDS011;6932;51.438;5.470;2023-03-07T10:54:34;3.43;;;2.43;;
13720;SDS011;6932;51.438;5.470;2023-03-07T10:59:41;4.60;;;2.90;;
13720;SDS011;6932;51.438;5.470;2023-03-07T11:02:34;3.93;;;2.80;;
13720;SDS011;6932;51.438;5.470;2023-03-07T11:05:01;4.20;;;2.63;;
13720;SDS011;6932;51.438;5.470;2023-03-07T11:07:48;4.67;;;2.90;;
13720;SDS011;6932;51.438;5.470;2023-03-07T11:13:16;3.53;;;2.63;;
13720;SDS011;6932;51.438;5.470;2023-03-07T11:15:44;4.47;;;2.93;;
13720;SDS011;6932;51.438;5.470;2023-03-07T11:18:30;4.23;;;2.90;;
13720;SDS011;6932;51.438;5.470;2023-03-07T11:21:03;5.57;;;3.20;;
13720;SDS011;6932;51.438;5.470;2023-03-07T11:23:29;4.67;;;3.10;;
13720;SDS011;6932;51.438;5.470;2023-03-07T11:25:57;5.67;;;3.10;;
13720;SDS011;6932;51.438;5.470;2023-03-07T11:28:46;5.60;;;3.10;;
13720;SDS011;6932;51.438;5.470;2023-03-07T11:31:34;5.37;;;3.20;;
13720;SDS011;6932;51.438;5.470;2023-03-07T11:34:58;4.90;;;3.00;;
13720;SDS011;6932;51.438;5.470;2023-03-07T11:37:42;4.37;;;2.80;;
13720;SDS011;6932;51.438;5.470;2023-03-07T11:47:18;3.37;;;2.60;;
13720;SDS011;6932;51.438;5.470;2023-03-07T11:50:13;3.50;;;2.40;;
13720;SDS011;6932;51.438;5.470;2023-03-07T11:58:53;3.00;;;2.30;;
13720;SDS011;6932;51.438;5.470;2023-03-07T12:01:53;3.67;;;2.40;;
13720;SDS011;6932;51.438;5.470;2023-03-07T12:07:39;3.27;;;2.27;;
13720;SDS011;6932;51.438;5.470;2023-03-07T12:20:07;3.30;;;2.20;;
13720;SDS011;6932;51.438;5.470;2023-03-07T12:25:48;3.03;;;2.27;;
13720;SDS011;6932;51.438;5.470;2023-03-07T12:28:47;2.87;;;2.20;;
13720;SDS011;6932;51.438;5.470;2023-03-07T12:31:39;2.93;;;2.30;;
13720;SDS011;6932;51.438;5.470;2023-03-07T12:34:16;3.37;;;2.40;;
13720;SDS011;6932;51.438;5.470;2023-03-07T12:37:05;4.50;;;2.70;;
13720;SDS011;6932;51.438;5.470;2023-03-07T12:39:48;4.00;;;3.00;;
13720;SDS011;6932;51.438;5.470;2023-03-07T12:56:53;7.60;;;4.60;;
13720;SDS011;6932;51.438;5.470;2023-03-07T12:59:18;8.73;;;5.27;;
13720;SDS011;6932;51.438;5.470;2023-03-07T13:01:47;8.57;;;5.00;;
13720;SDS011;6932;51.438;5.470;2023-03-07T13:10:38;9.67;;;5.57;;
13720;SDS011;6932;51.438;5.470;2023-03-07T13:16:10;10.10;;;5.33;;
13720;SDS011;6932;51.438;5.470;2023-03-07T13:19:31;10.07;;;5.70;;
13720;SDS011;6932;51.438;5.470;2023-03-07T13:35:58;10.70;;;6.40;;
13720;SDS011;6932;51.438;5.470;2023-03-07T13:41:03;11.13;;;6.77;;
13720;SDS011;6932;51.438;5.470;2023-03-07T13:43:32;10.23;;;6.23;;
13720;SDS011;6932;51.438;5.470;2023-03-07T13:49:37;9.37;;;5.47;;
13720;SDS011;6932;51.438;5.470;2023-03-07T13:52:19;10.77;;;6.10;;
13720;SDS011;6932;51.438;5.470;2023-03-07T13:54:56;8.27;;;4.90;;
13720;SDS011;6932;51.438;5.470;2023-03-07T13:57:27;7.10;;;4.37;;
13720;SDS011;6932;51.438;5.470;2023-03-07T14:00:02;5.80;;;3.73;;
13720;SDS011;6932;51.438;5.470;2023-03-07T14:02:46;5.97;;;3.73;;
13720;SDS011;6932;51.438;5.470;2023-03-07T14:05:13;5.23;;;3.53;;
13720;SDS011;6932;51.438;5.470;2023-03-07T14:07:39;4.13;;;2.87;;
13720;SDS011;6932;51.438;5.470;2023-03-07T14:10:20;4.87;;;3.40;;
13720;SDS011;6932;51.438;5.470;2023-03-07T14:19:00;3.37;;;2.50;;
13720;SDS011;6932;51.438;5.470;2023-03-07T14:21:51;3.30;;;2.50;;
13720;SDS011;6932;51.438;5.470;2023-03-07T14:27:26;3.40;;;2.10;;
13720;SDS011;6932;51.438;5.470;2023-03-07T14:32:47;3.30;;;2.10;;
13720;SDS011;6932;51.438;5.470;2023-03-07T14:35:13;2.40;;;1.93;;
13720;SDS011;6932;51.438;5.470;2023-03-07T14:37:43;2.47;;;1.97;;
13720;SDS011;6932;51.438;5.470;2023-03-07T14:40:23;1.93;;;1.67;;
13720;SDS011;6932;51.438;5.470;2023-03-07T14:51:42;2.80;;;1.83;;
13720;SDS011;6932;51.438;5.470;2023-03-07T14:54:12;1.93;;;1.60;;
13720;SDS011;6932;51.438;5.470;2023-03-07T14:56:43;2.03;;;1.80;;
13720;SDS011;6932;51.438;5.470;2023-03-07T14:59:11;2.67;;;1.63;;
13720;SDS011;6932;51.438;5.470;2023-03-07T15:01:38;2.23;;;1.70;;
13720;SDS011;6932;51.438;5.470;2023-03-07T15:04:28;2.17;;;1.80;;
13720;SDS011;6932;51.438;5.470;2023-03-07T15:06:58;1.87;;;1.60;;
13720;SDS011;6932;51.438;5.470;2023-03-07T15:09:26;1.80;;;1.63;;
13720;SDS011;6932;51.438;5.470;2023-03-07T15:14:49;2.03;;;1.50;;
13720;SDS011;6932;51.438;5.470;2023-03-07T15:17:23;1.60;;;1.50;;
13720;SDS011;6932;51.438;5.470;2023-03-07T15:20:17;1.80;;;1.30;;
13720;SDS011;6932;51.438;5.470;2023-03-07T15:22:48;3.30;;;1.50;;
13720;SDS011;6932;51.438;5.470;2023-03-07T15:27:43;2.00;;;1.37;;
13720;SDS011;6932;51.438;5.470;2023-03-07T15:30:20;1.60;;;1.50;;
13720;SDS011;6932;51.438;5.470;2023-03-07T15:35:44;2.77;;;1.57;;
13720;SDS011;6932;51.438;5.470;2023-03-07T15:38:30;2.30;;;1.80;;
13720;SDS011;6932;51.438;5.470;2023-03-07T15:40:57;2.50;;;2.00;;
13720;SDS011;6932;51.438;5.470;2023-03-07T15:47:11;2.40;;;2.07;;
13720;SDS011;6932;51.438;5.470;2023-03-07T15:49:42;2.80;;;2.00;;
13720;SDS011;6932;51.438;5.470;2023-03-07T15:55:02;2.67;;;1.90;;
13720;SDS011;6932;51.438;5.470;2023-03-07T15:57:50;2.27;;;1.80;;
13720;SDS011;6932;51.438;5.470;2023-03-07T16:03:19;2.33;;;1.50;;
13720;SDS011;6932;51.438;5.470;2023-03-07T16:09:09;2.03;;;1.83;;
13720;SDS011;6932;51.438;5.470;2023-03-07T16:11:42;1.90;;;1.70;;
13720;SDS011;6932;51.438;5.470;2023-03-07T16:14:17;2.43;;;1.90;;
13720;SDS011;6932;51.438;5.470;2023-03-07T16:16:54;2.87;;;2.10;;
13720;SDS011;6932;51.438;5.470;2023-03-07T16:19:24;2.53;;;1.90;;
13720;SDS011;6932;51.438;5.470;2023-03-07T16:21:50;3.07;;;2.23;;
13720;SDS011;6932;51.438;5.470;2023-03-07T16:24:16;2.13;;;1.80;;
13720;SDS011;6932;51.438;5.470;2023-03-07T16:26:42;2.37;;;2.03;;
13720;SDS011;6932;51.438;5.470;2023-03-07T16:29:13;2.37;;;2.17;;
13720;SDS011;6932;51.438;5.470;2023-03-07T16:31:46;2.20;;;2.00;;
13720;SDS011;6932;51.438;5.470;2023-03-07T16:34:16;2.40;;;2.10;;
13720;SDS011;6932;51.438;5.470;2023-03-07T16:36:45;3.90;;;2.30;;
13720;SDS011;6932;51.438;5.470;2023-03-07T16:39:12;2.70;;;2.37;;
13720;SDS011;6932;51.438;5.470;2023-03-07T16:41:42;2.67;;;2.20;;
13720;SDS011;6932;51.438;5.470;2023-03-07T16:44:16;3.53;;;2.30;;
13720;SDS011;6932;51.438;5.470;2023-03-07T16:46:45;2.40;;;2.20;;
13720;SDS011;6932;51.438;5.470;2023-03-07T16:49:32;3.07;;;2.50;;
13720;SDS011;6932;51.438;5.470;2023-03-07T16:51:59;3.43;;;2.50;;
13720;SDS011;6932;51.438;5.470;2023-03-07T16:54:24;3.93;;;2.53;;
13720;SDS011;6932;51.438;5.470;2023-03-07T16:56:51;3.40;;;2.60;;
13720;SDS011;6932;51.438;5.470;2023-03-07T16:59:19;3.10;;;2.50;;
13720;SDS011;6932;51.438;5.470;2023-03-07T17:01:49;3.40;;;2.50;;
13720;SDS011;6932;51.438;5.470;2023-03-07T17:04:17;3.03;;;2.47;;
13720;SDS011;6932;51.438;5.470;2023-03-07T17:06:43;3.83;;;2.50;;
13720;SDS011;6932;51.438;5.470;2023-03-07T17:09:10;3.77;;;2.50;;
13720;SDS011;6932;51.438;5.470;2023-03-07T17:11:47;4.30;;;2.40;;
13720;SDS011;6932;51.438;5.470;2023-03-07T17:14:15;3.63;;;2.50;;
13720;SDS011;6932;51.438;5.470;2023-03-07T17:16:44;3.70;;;2.30;;
13720;SDS011;6932;51.438;5.470;2023-03-07T17:19:26;3.37;;;2.53;;
13720;SDS011;6932;51.438;5.470;2023-03-07T17:25:44;3.20;;;2.03;;
13720;SDS011;6932;51.438;5.470;2023-03-07T17:28:11;4.17;;;2.20;;
13720;SDS011;6932;51.438;5.470;2023-03-07T17:30:39;2.30;;;1.90;;
13720;SDS011;6932;51.438;5.470;2023-03-07T17:33:09;3.00;;;1.90;;
13720;SDS011;6932;51.438;5.470;2023-03-07T17:35:36;3.13;;;2.03;;
13720;SDS011;6932;51.438;5.470;2023-03-07T17:38:01;3.57;;;2.20;;
13720;SDS011;6932;51.438;5.470;2023-03-07T17:40:27;3.23;;;2.10;;
13720;SDS011;6932;51.438;5.470;2023-03-07T17:42:53;4.77;;;2.13;;
13720;SDS011;6932;51.438;5.470;2023-03-07T17:45:21;4.10;;;2.20;;
13720;SDS011;6932;51.438;5.470;2023-03-07T17:55:35;3.63;;;2.40;;
13720;SDS011;6932;51.438;5.470;2023-03-07T17:58:05;4.53;;;2.30;;
13720;SDS011;6932;51.438;5.470;2023-03-07T18:00:32;4.53;;;2.70;;
13720;SDS011;6932;51.438;5.470;2023-03-07T18:02:59;4.50;;;2.70;;
13720;SDS011;6932;51.438;5.470;2023-03-07T18:05:24;5.90;;;3.00;;
13720;SDS011;6932;51.438;5.470;2023-03-07T18:07:52;6.70;;;3.17;;
13720;SDS011;6932;51.438;5.470;2023-03-07T18:10:18;5.50;;;3.13;;
13720;SDS011;6932;51.438;5.470;2023-03-07T18:12:44;5.73;;;3.20;;
13720;SDS011;6932;51.438;5.470;2023-03-07T18:18:51;7.30;;;4.10;;
13720;SDS011;6932;51.438;5.470;2023-03-07T18:21:18;7.73;;;4.57;;
13720;SDS011;6932;51.438;5.470;2023-03-07T18:23:47;6.53;;;4.23;;
13720;SDS011;6932;51.438;5.470;2023-03-07T18:26:17;7.57;;;4.07;;
13720;SDS011;6932;51.438;5.470;2023-03-07T18:28:45;7.73;;;4.23;;
13720;SDS011;6932;51.438;5.470;2023-03-07T18:31:17;9.63;;;4.60;;
13720;SDS011;6932;51.438;5.470;2023-03-07T18:37:37;9.60;;;5.40;;
13720;SDS011;6932;51.438;5.470;2023-03-07T18:40:03;9.43;;;5.87;;
13720;SDS011;6932;51.438;5.470;2023-03-07T18:42:29;9.13;;;5.47;;
13720;SDS011;6932;51.438;5.470;2023-03-07T18:44:55;9.20;;;5.30;;
13720;SDS011;6932;51.438;5.470;2023-03-07T18:47:21;9.80;;;5.57;;
13720;SDS011;6932;51.438;5.470;2023-03-07T18:49:49;8.93;;;5.10;;
13720;SDS011;6932;51.438;5.470;2023-03-07T18:59:44;8.90;;;4.80;;
13720;SDS011;6932;51.438;5.470;2023-03-07T19:02:10;9.30;;;5.13;;
13720;SDS011;6932;51.438;5.470;2023-03-07T19:04:35;8.63;;;4.80;;
13720;SDS011;6932;51.438;5.470;2023-03-07T19:07:01;9.27;;;5.00;;
13720;SDS011;6932;51.438;5.470;2023-03-07T19:09:28;9.23;;;5.00;;
13720;SDS011;6932;51.438;5.470;2023-03-07T19:11:55;8.87;;;4.80;;
13720;SDS011;6932;51.438;5.470;2023-03-07T19:14:21;8.00;;;4.73;;
13720;SDS011;6932;51.438;5.470;2023-03-07T19:16:46;8.57;;;4.87;;
13720;SDS011;6932;51.438;5.470;2023-03-07T19:19:12;8.63;;;4.80;;
13720;SDS011;6932;51.438;5.470;2023-03-07T19:21:38;8.70;;;4.80;;
13720;SDS011;6932;51.438;5.470;2023-03-07T19:24:04;10.17;;;4.80;;
13720;SDS011;6932;51.438;5.470;2023-03-07T19:26:31;9.17;;;4.60;;